createdAt,value
2022-10-18T00:02:59.543Z,3.10
2022-10-18T00:06:01.758Z,2.95
2022-10-18T00:09:03.989Z,2.95
2022-10-18T00:12:05.904Z,2.75
2022-10-18T00:15:08.504Z,2.45
2022-10-18T00:18:10.403Z,2.90
2022-10-18T00:21:18.365Z,3.30
2022-10-18T00:24:20.308Z,2.95
2022-10-18T00:27:22.188Z,2.83
2022-10-18T00:30:24.920Z,2.72
2022-10-18T00:33:26.833Z,2.50
2022-10-18T00:36:29.969Z,2.42
2022-10-18T00:39:31.879Z,3.03
2022-10-18T00:42:34.906Z,2.90
2022-10-18T00:45:36.756Z,3.35
2022-10-18T00:48:38.644Z,2.42
2022-10-18T00:51:44.318Z,2.60
2022-10-18T00:54:46.856Z,2.95
2022-10-18T01:00:50.573Z,2.50
2022-10-18T01:03:52.744Z,3.10
2022-10-18T01:07:24.142Z,2.20
2022-10-18T01:10:25.954Z,2.72
2022-10-18T01:13:42.386Z,2.53
2022-10-18T01:17:07.458Z,2.67
2022-10-18T01:20:18.634Z,2.63
2022-10-18T01:23:29.382Z,2.78
2022-10-18T01:26:50.029Z,2.35
2022-10-18T01:29:57.921Z,2.20
2022-10-18T01:33:21.680Z,2.80
2022-10-18T01:36:30.836Z,2.70
2022-10-18T01:39:35.065Z,2.22
2022-10-18T01:42:37.008Z,2.20
2022-10-18T01:45:38.993Z,2.45
2022-10-18T01:48:40.873Z,7.85
2022-10-18T01:51:42.797Z,2.38
2022-10-18T01:54:50.591Z,2.70
2022-10-18T01:58:06.418Z,2.10
2022-10-18T02:01:18.249Z,2.05
2022-10-18T02:04:30.498Z,2.65
2022-10-18T02:08:12.635Z,1.90
2022-10-18T02:11:21.047Z,2.75
2022-10-18T02:14:23.384Z,2.80
2022-10-18T02:17:26.255Z,2.55
2022-10-18T02:20:29.062Z,2.10
2022-10-18T02:23:30.937Z,2.55
2022-10-18T02:26:32.818Z,2.53
2022-10-18T02:29:34.650Z,2.50
2022-10-18T02:32:48.616Z,2.58
2022-10-18T02:35:52.818Z,2.22
2022-10-18T02:38:57.207Z,2.20
2022-10-18T02:41:59.781Z,1.90
2022-10-18T02:45:01.729Z,1.80
2022-10-18T02:48:03.670Z,1.90
2022-10-18T02:51:05.705Z,2.10
2022-10-18T02:54:08.585Z,2.20
2022-10-18T02:57:10.465Z,2.20
2022-10-18T03:00:12.979Z,2.03
2022-10-18T03:03:14.855Z,1.92
2022-10-18T03:06:16.814Z,1.77
2022-10-18T03:09:18.707Z,1.92
2022-10-18T03:12:20.575Z,2.10
2022-10-18T03:15:22.502Z,2.58
2022-10-18T03:18:24.377Z,2.15
2022-10-18T03:21:26.434Z,2.60
2022-10-18T03:24:28.328Z,2.40
2022-10-18T03:27:30.536Z,2.10
2022-10-18T03:30:32.523Z,1.98
2022-10-18T03:33:34.451Z,2.03
2022-10-18T03:36:36.388Z,2.50
2022-10-18T03:39:38.248Z,2.47
2022-10-18T03:42:40.119Z,2.33
2022-10-18T03:45:41.936Z,2.85
2022-10-18T03:48:43.764Z,2.23
2022-10-18T03:51:45.623Z,2.37
2022-10-18T03:54:47.537Z,2.20
2022-10-18T03:57:49.446Z,2.22
2022-10-18T04:00:52.084Z,2.70
2022-10-18T04:06:55.845Z,2.40
2022-10-18T04:09:57.695Z,2.95
2022-10-18T04:12:59.536Z,2.77
2022-10-18T04:16:01.381Z,3.03
2022-10-18T04:19:03.600Z,2.77
2022-10-18T04:22:05.432Z,1.85
2022-10-18T04:25:07.588Z,2.17
2022-10-18T04:28:09.428Z,2.70
2022-10-18T04:31:11.409Z,2.57
2022-10-18T04:34:13.334Z,2.67
2022-10-18T04:37:15.208Z,2.45
2022-10-18T04:40:17.183Z,2.90
2022-10-18T04:43:19.095Z,2.72
2022-10-18T04:46:21.015Z,2.55
2022-10-18T04:49:22.932Z,2.33
2022-10-18T04:52:24.801Z,2.40
2022-10-18T04:55:26.650Z,2.20
2022-10-18T04:58:28.552Z,2.83
2022-10-18T05:01:30.457Z,2.83
2022-10-18T05:04:32.324Z,2.53
2022-10-18T05:07:34.164Z,3.00
2022-10-18T05:10:36.031Z,2.67
2022-10-18T05:13:38.426Z,2.57
2022-10-18T05:16:40.288Z,2.58
2022-10-18T05:19:42.201Z,2.60
2022-10-18T05:22:44.161Z,3.05
2022-10-18T05:25:46.323Z,2.85
2022-10-18T05:28:49.833Z,3.10
2022-10-18T05:31:51.811Z,3.50
2022-10-18T05:34:53.637Z,3.63
2022-10-18T05:37:55.540Z,3.10
2022-10-18T05:40:57.820Z,2.88
2022-10-18T05:44:02.640Z,2.20
2022-10-18T05:47:04.659Z,2.20
2022-10-18T05:50:06.618Z,2.33
2022-10-18T05:53:12.404Z,2.63
2022-10-18T05:56:26.599Z,2.83
2022-10-18T05:59:28.455Z,2.60
2022-10-18T06:02:30.353Z,2.93
2022-10-18T06:05:32.388Z,2.65
2022-10-18T06:08:34.455Z,2.40
2022-10-18T06:11:37.081Z,2.20
2022-10-18T06:17:40.711Z,2.70
2022-10-18T06:20:42.593Z,2.40
2022-10-18T06:23:48.045Z,3.22
2022-10-18T06:26:50.124Z,2.88
2022-10-18T06:29:51.981Z,2.67
2022-10-18T06:32:53.798Z,2.80
2022-10-18T06:36:06.456Z,2.60
2022-10-18T06:39:08.542Z,3.28
2022-10-18T06:42:10.379Z,2.50
2022-10-18T06:45:14.435Z,2.85
2022-10-18T06:51:18.609Z,2.97
2022-10-18T06:54:20.482Z,3.10
2022-10-18T06:57:22.364Z,2.70
2022-10-18T07:00:24.276Z,3.90
2022-10-18T07:03:26.384Z,3.20
2022-10-18T07:06:28.254Z,3.05
2022-10-18T07:09:30.100Z,3.67
2022-10-18T07:12:32.237Z,3.25
2022-10-18T07:15:35.025Z,2.92
2022-10-18T07:18:38.212Z,3.00
2022-10-18T07:21:40.053Z,3.10
2022-10-18T07:24:41.908Z,2.60
2022-10-18T07:27:43.742Z,3.03
2022-10-18T07:30:45.699Z,2.42
2022-10-18T07:33:47.541Z,3.00
2022-10-18T07:36:49.432Z,2.85
2022-10-18T07:39:51.313Z,2.50
2022-10-18T07:42:53.216Z,3.15
2022-10-18T07:45:55.762Z,2.47
2022-10-18T07:52:01.464Z,4.32
2022-10-18T07:55:03.494Z,3.42
2022-10-18T07:58:05.603Z,3.08
2022-10-18T08:01:08.416Z,4.18
2022-10-18T08:04:15.386Z,3.42
2022-10-18T08:07:18.236Z,3.55
2022-10-18T08:10:20.647Z,3.25
2022-10-18T08:13:22.513Z,2.80
2022-10-18T08:16:26.228Z,2.78
2022-10-18T08:19:28.129Z,2.42
2022-10-18T08:22:30.019Z,2.65
2022-10-18T08:25:31.978Z,2.50
2022-10-18T08:31:38.878Z,4.22
2022-10-18T08:34:40.724Z,2.60
2022-10-18T08:37:42.542Z,2.42
2022-10-18T08:43:56.661Z,2.08
2022-10-18T08:47:18.693Z,2.40
2022-10-18T08:50:27.953Z,2.50
2022-10-18T08:53:57.103Z,2.75
2022-10-18T08:57:04.010Z,2.47
2022-10-18T09:00:15.152Z,2.08
2022-10-18T09:03:30.586Z,2.65
2022-10-18T09:06:35.834Z,2.60
2022-10-18T09:09:44.013Z,2.50
2022-10-18T09:13:19.584Z,2.83
2022-10-18T09:16:42.692Z,2.13
2022-10-18T09:20:03.401Z,2.58
2022-10-18T09:23:38.139Z,2.53
2022-10-18T09:26:49.520Z,2.25
2022-10-18T09:30:04.265Z,2.17
2022-10-18T09:33:27.952Z,2.55
2022-10-18T09:36:35.753Z,2.47
2022-10-18T09:39:38.256Z,2.47
2022-10-18T09:42:42.450Z,2.20
2022-10-18T09:45:44.960Z,2.08
2022-10-18T09:49:01.984Z,2.00
2022-10-18T09:52:06.619Z,2.60
2022-10-18T09:55:20.375Z,2.55
2022-10-18T09:58:22.223Z,2.30
2022-10-18T10:01:29.240Z,2.97
2022-10-18T10:04:31.121Z,2.75
2022-10-18T10:07:41.502Z,2.20
2022-10-18T10:10:46.950Z,5.05
2022-10-18T10:13:48.844Z,2.92
2022-10-18T10:17:04.062Z,2.38
2022-10-18T10:20:21.129Z,2.67
2022-10-18T10:23:35.761Z,2.97
2022-10-18T10:26:40.489Z,2.45
2022-10-18T10:29:49.673Z,2.70
2022-10-18T10:32:51.997Z,4.45
2022-10-18T10:35:58.827Z,2.88
2022-10-18T10:39:08.076Z,4.35
2022-10-18T10:42:12.046Z,3.17
2022-10-18T10:45:13.897Z,3.10
2022-10-18T10:51:38.658Z,4.13
2022-10-18T10:54:40.503Z,3.53
2022-10-18T10:57:44.224Z,3.88
2022-10-18T11:00:46.081Z,3.20
2022-10-18T11:03:49.135Z,3.72
2022-10-18T11:07:04.558Z,3.70
2022-10-18T11:10:16.569Z,4.40
2022-10-18T11:13:41.701Z,3.25
2022-10-18T11:17:00.432Z,3.42
2022-10-18T11:20:09.905Z,4.90
2022-10-18T11:23:12.872Z,3.80
2022-10-18T11:26:42.000Z,2.60
2022-10-18T11:29:54.416Z,2.40
2022-10-18T11:33:06.794Z,2.90
2022-10-18T11:36:12.300Z,2.10
2022-10-18T11:39:53.329Z,2.63
2022-10-18T11:43:30.122Z,3.15
2022-10-18T11:47:02.823Z,3.60
2022-10-18T11:50:13.535Z,3.25
2022-10-18T11:53:32.343Z,2.17
2022-10-18T11:56:48.061Z,2.20
2022-10-18T12:00:03.992Z,2.40
2022-10-18T12:03:24.741Z,3.13
2022-10-18T12:06:30.830Z,2.55
2022-10-18T12:09:43.515Z,2.70
2022-10-18T12:12:53.910Z,2.75
2022-10-18T12:15:55.808Z,2.30
2022-10-18T12:19:02.860Z,2.50
2022-10-18T12:22:21.302Z,2.60
2022-10-18T12:25:23.150Z,2.17
2022-10-18T12:31:44.531Z,2.30
2022-10-18T12:34:59.103Z,2.40
2022-10-18T12:38:14.924Z,2.30
2022-10-18T12:41:22.020Z,2.15
2022-10-18T12:44:29.896Z,2.53
2022-10-18T12:47:32.045Z,2.50
2022-10-18T12:50:40.598Z,2.35
2022-10-18T12:53:45.231Z,2.35
2022-10-18T12:56:47.737Z,3.85
2022-10-18T12:59:49.894Z,4.05
2022-10-18T13:03:10.349Z,3.20
2022-10-18T13:06:12.208Z,2.28
2022-10-18T13:12:20.223Z,2.30
2022-10-18T13:18:38.312Z,2.40
2022-10-18T13:22:18.019Z,2.80
2022-10-18T13:25:29.097Z,2.95
2022-10-18T13:28:32.905Z,2.63
2022-10-18T13:31:47.950Z,2.85
2022-10-18T13:34:49.873Z,2.60
2022-10-18T13:41:05.934Z,2.88
2022-10-18T13:44:23.131Z,3.05
2022-10-18T13:47:35.966Z,3.40
2022-10-18T13:50:38.025Z,3.72
2022-10-18T13:53:57.354Z,2.80
2022-10-18T13:57:36.078Z,3.13
2022-10-18T14:00:52.368Z,2.90
2022-10-18T14:04:26.490Z,3.30
2022-10-18T14:07:28.341Z,4.00
2022-10-18T14:14:26.512Z,2.85
2022-10-18T14:17:42.822Z,2.80
2022-10-18T14:21:01.425Z,2.90
2022-10-18T14:24:21.923Z,3.22
2022-10-18T14:27:35.073Z,2.60
2022-10-18T14:30:37.151Z,2.75
2022-10-18T14:36:46.267Z,2.30
2022-10-18T14:39:48.141Z,2.58
2022-10-18T14:45:51.913Z,2.55
2022-10-18T14:48:55.065Z,2.20
2022-10-18T14:51:58.603Z,2.70
2022-10-18T14:55:00.471Z,2.60
2022-10-18T14:58:02.580Z,2.80
2022-10-18T15:01:04.584Z,2.45
2022-10-18T15:04:09.903Z,2.45
2022-10-18T15:07:16.324Z,2.70
2022-10-18T15:10:23.928Z,2.67
2022-10-18T15:13:26.604Z,2.50
2022-10-18T15:16:29.699Z,2.45
2022-10-18T15:19:36.252Z,3.08
2022-10-18T15:22:38.080Z,2.30
2022-10-18T15:25:39.963Z,3.20
2022-10-18T15:28:51.409Z,2.80
2022-10-18T15:31:53.990Z,2.33
2022-10-18T15:34:56.150Z,2.38
2022-10-18T15:41:38.043Z,2.78
2022-10-18T15:44:51.036Z,4.72
2022-10-18T15:47:59.305Z,4.30
2022-10-18T15:51:04.451Z,2.83
2022-10-18T15:54:08.077Z,3.83
2022-10-18T15:57:10.057Z,3.67
2022-10-18T16:00:15.535Z,2.60
2022-10-18T16:03:18.027Z,2.70
2022-10-18T16:09:22.519Z,2.80
2022-10-18T16:12:24.376Z,3.58
2022-10-18T16:15:26.237Z,2.50
2022-10-18T16:18:28.103Z,2.47
2022-10-18T16:21:35.574Z,2.70
2022-10-18T16:24:37.419Z,2.90
2022-10-18T16:27:39.243Z,2.72
2022-10-18T16:30:42.048Z,2.60
2022-10-18T16:33:44.420Z,2.60
2022-10-18T16:36:46.285Z,3.78
2022-10-18T16:39:48.123Z,3.72
2022-10-18T16:42:50.092Z,3.13
2022-10-18T16:45:52.439Z,3.25
2022-10-18T16:51:56.153Z,3.53
2022-10-18T16:54:58.009Z,3.08
2022-10-18T16:58:00.028Z,3.47
2022-10-18T17:01:04.110Z,3.95
2022-10-18T17:04:08.592Z,4.60
2022-10-18T17:07:13.027Z,5.35
2022-10-18T17:10:16.246Z,4.65
2022-10-18T17:13:18.109Z,3.25
2022-10-18T17:16:25.414Z,2.90
2022-10-18T17:19:27.260Z,4.20
2022-10-18T17:22:29.136Z,5.05
2022-10-18T17:28:54.237Z,3.42
2022-10-18T17:31:56.103Z,4.28
2022-10-18T17:34:58.212Z,5.90
2022-10-18T17:38:00.083Z,4.20
2022-10-18T17:41:09.239Z,3.88
2022-10-18T17:44:11.184Z,5.68
2022-10-18T17:47:13.082Z,5.28
2022-10-18T17:50:15.691Z,6.50
2022-10-18T17:53:22.486Z,11.27
2022-10-18T17:56:24.842Z,7.35
2022-10-18T18:02:28.669Z,7.63
2022-10-18T18:05:31.650Z,5.55
2022-10-18T18:08:33.489Z,6.68
2022-10-18T18:11:36.211Z,7.60
2022-10-18T18:14:38.146Z,5.03
2022-10-18T18:17:56.059Z,5.47
2022-10-18T18:20:58.769Z,4.10
2022-10-18T18:24:00.659Z,4.53
2022-10-18T18:27:02.487Z,5.43
2022-10-18T18:30:05.591Z,5.07
2022-10-18T18:33:08.013Z,6.45
2022-10-18T18:36:10.022Z,6.53
2022-10-18T18:39:23.517Z,8.40
2022-10-18T18:42:25.403Z,12.20
2022-10-18T18:45:27.231Z,7.90
2022-10-18T18:48:29.478Z,6.28
2022-10-18T18:51:33.183Z,5.55
2022-10-18T18:54:35.020Z,5.88
2022-10-18T18:57:36.843Z,6.30
2022-10-18T19:00:43.330Z,6.38
2022-10-18T19:03:48.429Z,6.88
2022-10-18T19:06:50.311Z,4.80
2022-10-18T19:09:52.280Z,4.72
2022-10-18T19:12:54.284Z,4.10
2022-10-18T19:16:28.522Z,5.20
2022-10-18T19:19:30.537Z,6.55
2022-10-18T19:22:32.436Z,4.38
2022-10-18T19:25:34.335Z,3.22
2022-10-18T19:28:36.207Z,4.03
2022-10-18T19:31:38.341Z,3.65
2022-10-18T19:34:40.259Z,2.95
2022-10-18T19:37:42.073Z,3.53
2022-10-18T19:40:43.945Z,4.25
2022-10-18T19:43:45.867Z,3.75
2022-10-18T19:46:47.771Z,3.83
2022-10-18T19:49:49.688Z,4.82
2022-10-18T19:52:51.673Z,3.72
2022-10-18T19:55:58.715Z,3.38
2022-10-18T19:59:00.582Z,3.80
2022-10-18T20:02:04.945Z,3.60
2022-10-18T20:05:07.059Z,3.97
2022-10-18T20:08:09.299Z,3.63
2022-10-18T20:11:12.940Z,3.30
2022-10-18T20:14:14.748Z,3.13
2022-10-18T20:17:16.644Z,2.90
2022-10-18T20:20:18.548Z,3.00
2022-10-18T20:23:20.520Z,3.55
2022-10-18T20:26:22.504Z,3.40
2022-10-18T20:29:25.549Z,3.30
2022-10-18T20:32:27.404Z,3.03
2022-10-18T20:35:29.308Z,2.70
2022-10-18T20:38:32.770Z,4.10
2022-10-18T20:41:36.531Z,3.20
2022-10-18T20:44:43.202Z,3.55
2022-10-18T20:47:45.053Z,3.22
2022-10-18T20:50:46.905Z,4.05
2022-10-18T20:53:48.923Z,3.30
2022-10-18T20:56:50.766Z,2.30
2022-10-18T20:59:52.607Z,2.58
2022-10-18T21:02:56.532Z,3.08
2022-10-18T21:06:00.325Z,2.70
2022-10-18T21:09:04.596Z,2.63
2022-10-18T21:12:06.519Z,2.53
2022-10-18T21:15:08.822Z,3.38
2022-10-18T21:18:10.691Z,2.70
2022-10-18T21:21:14.505Z,2.95
2022-10-18T21:24:16.961Z,2.67
2022-10-18T21:30:20.574Z,2.50
2022-10-18T21:33:22.416Z,2.50
2022-10-18T21:36:24.475Z,2.97
2022-10-18T21:39:26.332Z,2.67
2022-10-18T21:42:28.161Z,2.90
2022-10-18T21:45:30.044Z,3.97
2022-10-18T21:48:31.882Z,3.38
2022-10-18T21:51:33.719Z,2.70
2022-10-18T21:54:35.592Z,3.00
2022-10-18T21:57:37.438Z,3.05
2022-10-18T22:00:39.361Z,2.22
2022-10-18T22:03:41.457Z,2.35
2022-10-18T22:06:43.310Z,2.20
2022-10-18T22:09:45.232Z,2.70
2022-10-18T22:12:47.060Z,2.50
2022-10-18T22:15:48.941Z,2.60
2022-10-18T22:18:50.990Z,2.75
2022-10-18T22:21:52.948Z,2.83
2022-10-18T22:24:54.820Z,2.53
2022-10-18T22:27:56.668Z,2.92
2022-10-18T22:30:59.171Z,3.30
2022-10-18T22:37:05.008Z,2.75
2022-10-18T22:40:07.659Z,3.03
2022-10-18T22:43:09.516Z,2.70
2022-10-18T22:46:12.649Z,3.50
2022-10-18T22:49:14.555Z,3.42
2022-10-18T22:52:16.358Z,3.10
2022-10-18T22:55:18.297Z,2.58
2022-10-18T22:58:20.460Z,3.17
2022-10-18T23:01:23.175Z,3.08
2022-10-18T23:04:25.046Z,3.03
2022-10-18T23:07:26.878Z,2.95
2022-10-18T23:10:28.754Z,2.20
2022-10-18T23:13:30.616Z,2.40
2022-10-18T23:16:32.513Z,2.45
2022-10-18T23:19:34.379Z,2.10
2022-10-18T23:22:36.438Z,2.95
2022-10-18T23:25:38.434Z,2.83
2022-10-18T23:28:41.962Z,2.50
2022-10-18T23:31:43.855Z,3.03
2022-10-18T23:34:45.683Z,2.22
2022-10-18T23:37:47.539Z,2.25
2022-10-18T23:40:49.400Z,2.88
2022-10-18T23:43:51.603Z,2.67
2022-10-18T23:46:53.446Z,2.40
2022-10-18T23:49:57.275Z,2.75
2022-10-18T23:52:59.165Z,2.88
2022-10-18T23:56:02.640Z,2.50
2022-10-18T23:59:04.487Z,2.45
